Wels, Austria
Current Conditions -  °F | °C
As of 8:20 PM on Wednesday 26 Nov 2014 (Local Time) from LOWL Reporting Station
Few Clouds Few Clouds  
Wind Chill: 32°   Ceiling: Unl
Heat Index: 36°   Visibility: 6mi
Dew Point: 30°   Wind: 5mph
Humidity: 81%   Direction: 100°E
Pressure: 30.03"   Gusts: NA
Location:  48.17°N, 14.03°E
Report Text: LOWL 261820Z 10004KT 9999 FEW022 02/M01 Q1017 NOSIG
Loading
Personal Weather Stations






























Interactive Weather Map New forecast layout! Learn more

10-Day Weather Forecast

Advertisements
Track Severe Weather on mobile